sensor_id;sensor_type;location;lat;lon;timestamp;temperature;humidity
60848;DHT22;46681;47.696;9.140;2022-08-21T00:01:10;19.40;69.10
60848;DHT22;46681;47.696;9.140;2022-08-21T00:06:35;19.40;69.00
60848;DHT22;46681;47.696;9.140;2022-08-21T00:09:02;19.30;68.90
60848;DHT22;46681;47.696;9.140;2022-08-21T00:11:38;19.30;69.00
60848;DHT22;46681;47.696;9.140;2022-08-21T00:14:07;19.30;69.10
60848;DHT22;46681;47.696;9.140;2022-08-21T00:16:56;19.30;69.00
60848;DHT22;46681;47.696;9.140;2022-08-21T00:22:40;19.30;68.90
60848;DHT22;46681;47.696;9.140;2022-08-21T00:25:32;19.30;69.00
60848;DHT22;46681;47.696;9.140;2022-08-21T00:28:01;19.30;68.90
60848;DHT22;46681;47.696;9.140;2022-08-21T00:30:42;19.20;68.90
60848;DHT22;46681;47.696;9.140;2022-08-21T00:33:13;19.20;68.90
60848;DHT22;46681;47.696;9.140;2022-08-21T00:35:41;19.20;69.00
60848;DHT22;46681;47.696;9.140;2022-08-21T00:38:18;19.20;69.00
60848;DHT22;46681;47.696;9.140;2022-08-21T00:41:15;19.20;68.90
60848;DHT22;46681;47.696;9.140;2022-08-21T00:43:54;19.20;69.00
60848;DHT22;46681;47.696;9.140;2022-08-21T00:46:19;19.10;68.80
60848;DHT22;46681;47.696;9.140;2022-08-21T00:51:38;19.10;68.90
60848;DHT22;46681;47.696;9.140;2022-08-21T00:54:04;19.10;68.90
60848;DHT22;46681;47.696;9.140;2022-08-21T00:56:30;19.10;69.00
60848;DHT22;46681;47.696;9.140;2022-08-21T00:59:10;19.10;69.00
60848;DHT22;46681;47.696;9.140;2022-08-21T01:01:59;19.10;68.80
60848;DHT22;46681;47.696;9.140;2022-08-21T01:04:33;19.00;68.90
60848;DHT22;46681;47.696;9.140;2022-08-21T01:07:08;19.10;69.00
60848;DHT22;46681;47.696;9.140;2022-08-21T01:09:42;19.00;69.00
60848;DHT22;46681;47.696;9.140;2022-08-21T01:12:09;19.00;69.10
60848;DHT22;46681;47.696;9.140;2022-08-21T01:14:35;19.00;69.10
60848;DHT22;46681;47.696;9.140;2022-08-21T01:17:10;19.00;69.20
60848;DHT22;46681;47.696;9.140;2022-08-21T01:19:50;19.00;69.20
60848;DHT22;46681;47.696;9.140;2022-08-21T01:22:17;19.00;69.30
60848;DHT22;46681;47.696;9.140;2022-08-21T01:24:43;19.00;69.50
60848;DHT22;46681;47.696;9.140;2022-08-21T01:27:11;19.00;69.50
60848;DHT22;46681;47.696;9.140;2022-08-21T01:32:09;19.00;69.70
60848;DHT22;46681;47.696;9.140;2022-08-21T01:34:50;19.00;69.60
60848;DHT22;46681;47.696;9.140;2022-08-21T01:37:36;19.00;69.60
60848;DHT22;46681;47.696;9.140;2022-08-21T01:40:04;19.00;69.70
60848;DHT22;46681;47.696;9.140;2022-08-21T01:42:58;19.00;69.80
60848;DHT22;46681;47.696;9.140;2022-08-21T01:45:24;19.00;69.90
60848;DHT22;46681;47.696;9.140;2022-08-21T01:47:55;19.10;70.00
60848;DHT22;46681;47.696;9.140;2022-08-21T01:50:21;19.10;70.20
60848;DHT22;46681;47.696;9.140;2022-08-21T01:53:01;19.10;70.00
60848;DHT22;46681;47.696;9.140;2022-08-21T01:55:40;19.10;70.20
60848;DHT22;46681;47.696;9.140;2022-08-21T01:58:20;19.10;70.10
60848;DHT22;46681;47.696;9.140;2022-08-21T02:01:01;19.10;70.20
60848;DHT22;46681;47.696;9.140;2022-08-21T02:03:36;19.10;70.10
60848;DHT22;46681;47.696;9.140;2022-08-21T02:06:06;19.10;70.30
60848;DHT22;46681;47.696;9.140;2022-08-21T02:08:52;19.10;70.40
60848;DHT22;46681;47.696;9.140;2022-08-21T02:11:19;19.10;70.60
60848;DHT22;46681;47.696;9.140;2022-08-21T02:13:57;19.10;70.30
60848;DHT22;46681;47.696;9.140;2022-08-21T02:16:25;19.10;70.30
60848;DHT22;46681;47.696;9.140;2022-08-21T02:19:04;19.20;70.50
60848;DHT22;46681;47.696;9.140;2022-08-21T02:21:37;19.20;70.40
60848;DHT22;46681;47.696;9.140;2022-08-21T02:24:05;19.20;70.40
60848;DHT22;46681;47.696;9.140;2022-08-21T02:26:38;19.20;70.50
60848;DHT22;46681;47.696;9.140;2022-08-21T02:29:20;19.20;70.40
60848;DHT22;46681;47.696;9.140;2022-08-21T02:32:17;19.20;70.40
60848;DHT22;46681;47.696;9.140;2022-08-21T02:37:51;19.20;70.40
60848;DHT22;46681;47.696;9.140;2022-08-21T02:40:25;19.20;70.40
60848;DHT22;46681;47.696;9.140;2022-08-21T02:42:51;19.20;70.50
60848;DHT22;46681;47.696;9.140;2022-08-21T02:45:20;19.20;70.50
60848;DHT22;46681;47.696;9.140;2022-08-21T02:50:31;19.20;70.50
60848;DHT22;46681;47.696;9.140;2022-08-21T02:53:01;19.20;70.60
60848;DHT22;46681;47.696;9.140;2022-08-21T02:55:32;19.20;70.60
60848;DHT22;46681;47.696;9.140;2022-08-21T02:58:09;19.30;70.70
60848;DHT22;46681;47.696;9.140;2022-08-21T03:00:46;19.30;70.80
60848;DHT22;46681;47.696;9.140;2022-08-21T03:03:19;19.30;70.80
60848;DHT22;46681;47.696;9.140;2022-08-21T03:06:03;19.30;70.90
60848;DHT22;46681;47.696;9.140;2022-08-21T03:08:31;19.30;70.80
60848;DHT22;46681;47.696;9.140;2022-08-21T03:11:03;19.20;70.70
60848;DHT22;46681;47.696;9.140;2022-08-21T03:13:35;19.30;70.80
60848;DHT22;46681;47.696;9.140;2022-08-21T03:16:01;19.30;70.90
60848;DHT22;46681;47.696;9.140;2022-08-21T03:18:36;19.30;70.80
60848;DHT22;46681;47.696;9.140;2022-08-21T03:21:08;19.30;70.80
60848;DHT22;46681;47.696;9.140;2022-08-21T03:23:49;19.30;71.00
60848;DHT22;46681;47.696;9.140;2022-08-21T03:26:34;19.30;70.90
60848;DHT22;46681;47.696;9.140;2022-08-21T03:29:09;19.30;70.80
60848;DHT22;46681;47.696;9.140;2022-08-21T03:31:35;19.30;70.80
60848;DHT22;46681;47.696;9.140;2022-08-21T03:34:13;19.30;70.90
60848;DHT22;46681;47.696;9.140;2022-08-21T03:36:49;19.30;70.90
60848;DHT22;46681;47.696;9.140;2022-08-21T03:39:21;19.30;71.20
60848;DHT22;46681;47.696;9.140;2022-08-21T03:41:56;19.30;70.90
60848;DHT22;46681;47.696;9.140;2022-08-21T03:44:24;19.30;70.90
60848;DHT22;46681;47.696;9.140;2022-08-21T03:47:01;19.30;70.90
60848;DHT22;46681;47.696;9.140;2022-08-21T03:49:34;19.30;70.90
60848;DHT22;46681;47.696;9.140;2022-08-21T03:54:42;19.30;70.90
60848;DHT22;46681;47.696;9.140;2022-08-21T03:57:22;19.30;70.90
60848;DHT22;46681;47.696;9.140;2022-08-21T03:59:53;19.40;71.00
60848;DHT22;46681;47.696;9.140;2022-08-21T04:02:21;19.30;71.00
60848;DHT22;46681;47.696;9.140;2022-08-21T04:04:52;19.30;70.90
60848;DHT22;46681;47.696;9.140;2022-08-21T04:07:18;19.30;70.80
60848;DHT22;46681;47.696;9.140;2022-08-21T04:09:48;19.30;70.90
60848;DHT22;46681;47.696;9.140;2022-08-21T04:12:20;19.40;70.90
60848;DHT22;46681;47.696;9.140;2022-08-21T04:14:49;19.40;71.10
60848;DHT22;46681;47.696;9.140;2022-08-21T04:17:15;19.30;70.80
60848;DHT22;46681;47.696;9.140;2022-08-21T04:19:40;19.40;71.00
60848;DHT22;46681;47.696;9.140;2022-08-21T04:22:17;19.40;70.90
60848;DHT22;46681;47.696;9.140;2022-08-21T04:24:49;19.40;71.00
60848;DHT22;46681;47.696;9.140;2022-08-21T04:27:27;19.40;71.10
60848;DHT22;46681;47.696;9.140;2022-08-21T04:29:57;19.40;71.10
60848;DHT22;46681;47.696;9.140;2022-08-21T04:32:35;19.40;71.10
60848;DHT22;46681;47.696;9.140;2022-08-21T04:35:06;19.40;71.10
60848;DHT22;46681;47.696;9.140;2022-08-21T04:37:38;19.40;71.00
60848;DHT22;46681;47.696;9.140;2022-08-21T04:40:20;19.40;70.90
60848;DHT22;46681;47.696;9.140;2022-08-21T04:42:53;19.40;71.00
60848;DHT22;46681;47.696;9.140;2022-08-21T04:45:46;19.40;70.90
60848;DHT22;46681;47.696;9.140;2022-08-21T04:48:13;19.40;70.80
60848;DHT22;46681;47.696;9.140;2022-08-21T04:51:06;19.40;70.90
60848;DHT22;46681;47.696;9.140;2022-08-21T04:53:47;19.40;70.90
60848;DHT22;46681;47.696;9.140;2022-08-21T04:56:45;19.40;70.90
60848;DHT22;46681;47.696;9.140;2022-08-21T04:59:19;19.40;71.00
60848;DHT22;46681;47.696;9.140;2022-08-21T05:01:50;19.40;71.00
60848;DHT22;46681;47.696;9.140;2022-08-21T05:04:34;19.40;71.00
60848;DHT22;46681;47.696;9.140;2022-08-21T05:07:10;19.40;71.00
60848;DHT22;46681;47.696;9.140;2022-08-21T05:09:56;19.40;71.00
60848;DHT22;46681;47.696;9.140;2022-08-21T05:12:33;19.30;71.00
60848;DHT22;46681;47.696;9.140;2022-08-21T05:15:03;19.40;71.20
60848;DHT22;46681;47.696;9.140;2022-08-21T05:17:37;19.40;71.00
60848;DHT22;46681;47.696;9.140;2022-08-21T05:20:14;19.40;71.10
60848;DHT22;46681;47.696;9.140;2022-08-21T05:25:30;19.40;70.80
60848;DHT22;46681;47.696;9.140;2022-08-21T05:28:08;19.40;71.10
60848;DHT22;46681;47.696;9.140;2022-08-21T05:30:39;19.40;70.90
60848;DHT22;46681;47.696;9.140;2022-08-21T05:33:20;19.40;71.00
60848;DHT22;46681;47.696;9.140;2022-08-21T05:35:58;19.40;70.90
60848;DHT22;46681;47.696;9.140;2022-08-21T05:38:27;19.40;70.70
60848;DHT22;46681;47.696;9.140;2022-08-21T05:40:53;19.40;70.70
60848;DHT22;46681;47.696;9.140;2022-08-21T05:43:19;19.40;71.30
60848;DHT22;46681;47.696;9.140;2022-08-21T05:45:49;19.50;70.80
60848;DHT22;46681;47.696;9.140;2022-08-21T05:48:45;19.50;70.80
60848;DHT22;46681;47.696;9.140;2022-08-21T05:51:31;19.50;70.90
60848;DHT22;46681;47.696;9.140;2022-08-21T05:53:59;19.50;70.70
60848;DHT22;46681;47.696;9.140;2022-08-21T05:56:25;19.50;70.70
60848;DHT22;46681;47.696;9.140;2022-08-21T05:58:54;19.50;70.70
60848;DHT22;46681;47.696;9.140;2022-08-21T06:01:53;19.50;70.80
60848;DHT22;46681;47.696;9.140;2022-08-21T06:07:52;19.50;70.70
60848;DHT22;46681;47.696;9.140;2022-08-21T06:54:07;20.20;69.70
60848;DHT22;46681;47.696;9.140;2022-08-21T06:56:53;20.20;69.60
60848;DHT22;46681;47.696;9.140;2022-08-21T08:12:20;22.50;62.70
60848;DHT22;46681;47.696;9.140;2022-08-21T08:18:34;22.50;62.30
60848;DHT22;46681;47.696;9.140;2022-08-21T08:21:32;22.70;62.20
60848;DHT22;46681;47.696;9.140;2022-08-21T08:28:30;23.00;61.70
60848;DHT22;46681;47.696;9.140;2022-08-21T08:34:23;23.20;61.00
60848;DHT22;46681;47.696;9.140;2022-08-21T08:37:11;23.20;60.70
60848;DHT22;46681;47.696;9.140;2022-08-21T08:39:48;23.30;60.60
60848;DHT22;46681;47.696;9.140;2022-08-21T08:45:44;23.50;60.30
60848;DHT22;46681;47.696;9.140;2022-08-21T08:48:53;23.60;60.10
60848;DHT22;46681;47.696;9.140;2022-08-21T08:55:23;24.00;59.40
60848;DHT22;46681;47.696;9.140;2022-08-21T08:57:53;24.10;59.20
60848;DHT22;46681;47.696;9.140;2022-08-21T09:55:13;26.40;54.00
60848;DHT22;46681;47.696;9.140;2022-08-21T10:07:59;26.40;55.70
60848;DHT22;46681;47.696;9.140;2022-08-21T13:43:04;33.60;40.10
60848;DHT22;46681;47.696;9.140;2022-08-21T14:04:43;33.90;40.20
60848;DHT22;46681;47.696;9.140;2022-08-21T14:42:21;32.60;40.90
60848;DHT22;46681;47.696;9.140;2022-08-21T14:48:31;32.70;40.60
60848;DHT22;46681;47.696;9.140;2022-08-21T15:46:45;30.20;41.70
60848;DHT22;46681;47.696;9.140;2022-08-21T16:08:59;29.60;42.40
60848;DHT22;46681;47.696;9.140;2022-08-21T16:21:15;29.20;41.40
60848;DHT22;46681;47.696;9.140;2022-08-21T16:30:36;28.50;38.50
60848;DHT22;46681;47.696;9.140;2022-08-21T16:39:42;28.30;40.00
60848;DHT22;46681;47.696;9.140;2022-08-21T16:42:52;28.40;41.00
60848;DHT22;46681;47.696;9.140;2022-08-21T16:46:07;28.30;41.30
60848;DHT22;46681;47.696;9.140;2022-08-21T16:55:36;27.50;41.30
60848;DHT22;46681;47.696;9.140;2022-08-21T16:59:17;27.60;41.50
60848;DHT22;46681;47.696;9.140;2022-08-21T17:01:38;27.60;40.80
60848;DHT22;46681;47.696;9.140;2022-08-21T17:17:14;27.60;42.40
60848;DHT22;46681;47.696;9.140;2022-08-21T17:26:42;27.50;42.30
60848;DHT22;46681;47.696;9.140;2022-08-21T17:39:26;27.20;43.10
60848;DHT22;46681;47.696;9.140;2022-08-21T17:49:02;26.90;44.20
60848;DHT22;46681;47.696;9.140;2022-08-21T18:01:44;26.60;45.80
60848;DHT22;46681;47.696;9.140;2022-08-21T18:40:03;25.40;48.80
60848;DHT22;46681;47.696;9.140;2022-08-21T18:43:06;25.30;49.10
60848;DHT22;46681;47.696;9.140;2022-08-21T18:52:18;25.00;49.70
60848;DHT22;46681;47.696;9.140;2022-08-21T18:55:14;25.00;50.00
60848;DHT22;46681;47.696;9.140;2022-08-21T18:58:08;24.90;50.10
60848;DHT22;46681;47.696;9.140;2022-08-21T19:01:27;24.80;50.30
60848;DHT22;46681;47.696;9.140;2022-08-21T19:07:41;24.60;50.60
60848;DHT22;46681;47.696;9.140;2022-08-21T19:26:42;24.10;51.60
60848;DHT22;46681;47.696;9.140;2022-08-21T19:32:37;24.00;51.70
60848;DHT22;46681;47.696;9.140;2022-08-21T19:35:17;23.90;52.00
60848;DHT22;46681;47.696;9.140;2022-08-21T19:41:15;23.80;52.30
60848;DHT22;46681;47.696;9.140;2022-08-21T19:46:50;23.60;52.40
60848;DHT22;46681;47.696;9.140;2022-08-21T19:49:32;23.50;52.40
60848;DHT22;46681;47.696;9.140;2022-08-21T19:52:24;23.50;52.60
60848;DHT22;46681;47.696;9.140;2022-08-21T19:55:27;23.40;52.70
60848;DHT22;46681;47.696;9.140;2022-08-21T19:58:03;23.40;52.70
60848;DHT22;46681;47.696;9.140;2022-08-21T20:00:52;23.40;53.00
60848;DHT22;46681;47.696;9.140;2022-08-21T20:03:33;23.30;52.90
60848;DHT22;46681;47.696;9.140;2022-08-21T20:09:18;23.20;53.00
60848;DHT22;46681;47.696;9.140;2022-08-21T20:12:03;23.10;53.30
60848;DHT22;46681;47.696;9.140;2022-08-21T20:15:02;23.00;52.80
60848;DHT22;46681;47.696;9.140;2022-08-21T20:20:41;22.90;53.40
60848;DHT22;46681;47.696;9.140;2022-08-21T20:23:16;22.80;53.40
60848;DHT22;46681;47.696;9.140;2022-08-21T20:26:03;22.80;53.60
60848;DHT22;46681;47.696;9.140;2022-08-21T20:28:54;22.70;53.70
60848;DHT22;46681;47.696;9.140;2022-08-21T20:31:35;22.70;54.00
60848;DHT22;46681;47.696;9.140;2022-08-21T20:34:19;22.60;53.90
60848;DHT22;46681;47.696;9.140;2022-08-21T20:36:55;22.60;54.10
60848;DHT22;46681;47.696;9.140;2022-08-21T20:39:35;22.50;54.20
60848;DHT22;46681;47.696;9.140;2022-08-21T20:42:20;22.50;54.20
60848;DHT22;46681;47.696;9.140;2022-08-21T20:45:17;22.50;54.40
60848;DHT22;46681;47.696;9.140;2022-08-21T20:48:27;22.40;54.40
60848;DHT22;46681;47.696;9.140;2022-08-21T21:00:03;22.20;54.80
60848;DHT22;46681;47.696;9.140;2022-08-21T21:03:06;22.20;54.90
60848;DHT22;46681;47.696;9.140;2022-08-21T21:11:20;22.00;55.10
60848;DHT22;46681;47.696;9.140;2022-08-21T21:14:07;22.00;55.30
60848;DHT22;46681;47.696;9.140;2022-08-21T21:16:59;22.00;55.50
60848;DHT22;46681;47.696;9.140;2022-08-21T21:19:55;21.90;55.50
60848;DHT22;46681;47.696;9.140;2022-08-21T21:22:54;21.90;55.60
60848;DHT22;46681;47.696;9.140;2022-08-21T21:25:28;21.80;55.70
60848;DHT22;46681;47.696;9.140;2022-08-21T21:28:26;21.80;55.70
60848;DHT22;46681;47.696;9.140;2022-08-21T21:30:57;21.80;55.80
60848;DHT22;46681;47.696;9.140;2022-08-21T21:33:29;21.70;55.70
60848;DHT22;46681;47.696;9.140;2022-08-21T22:11:42;21.20;56.50
60848;DHT22;46681;47.696;9.140;2022-08-21T22:14:15;21.20;56.60
60848;DHT22;46681;47.696;9.140;2022-08-21T22:19:59;21.10;56.70
60848;DHT22;46681;47.696;9.140;2022-08-21T22:22:31;21.10;56.80
60848;DHT22;46681;47.696;9.140;2022-08-21T22:25:33;21.10;56.80
60848;DHT22;46681;47.696;9.140;2022-08-21T22:28:16;21.00;56.80
60848;DHT22;46681;47.696;9.140;2022-08-21T22:34:23;21.00;56.90
60848;DHT22;46681;47.696;9.140;2022-08-21T22:37:03;20.90;57.00
60848;DHT22;46681;47.696;9.140;2022-08-21T22:39:52;20.90;57.10
60848;DHT22;46681;47.696;9.140;2022-08-21T22:42:31;20.90;57.00
60848;DHT22;46681;47.696;9.140;2022-08-21T22:45:05;20.80;57.10
60848;DHT22;46681;47.696;9.140;2022-08-21T22:47:50;20.80;57.10
60848;DHT22;46681;47.696;9.140;2022-08-21T22:53:07;20.70;57.20
60848;DHT22;46681;47.696;9.140;2022-08-21T22:56:25;20.70;57.20
60848;DHT22;46681;47.696;9.140;2022-08-21T22:59:01;20.70;57.30
60848;DHT22;46681;47.696;9.140;2022-08-21T23:01:52;20.70;57.40
60848;DHT22;46681;47.696;9.140;2022-08-21T23:04:26;20.60;57.20
60848;DHT22;46681;47.696;9.140;2022-08-21T23:07:41;20.60;57.40
60848;DHT22;46681;47.696;9.140;2022-08-21T23:09:58;20.60;57.40
60848;DHT22;46681;47.696;9.140;2022-08-21T23:12:35;20.50;57.50
60848;DHT22;46681;47.696;9.140;2022-08-21T23:15:15;20.50;57.50
60848;DHT22;46681;47.696;9.140;2022-08-21T23:17:47;20.50;57.40
60848;DHT22;46681;47.696;9.140;2022-08-21T23:20:32;20.50;57.60
60848;DHT22;46681;47.696;9.140;2022-08-21T23:23:25;20.40;57.50
60848;DHT22;46681;47.696;9.140;2022-08-21T23:29:21;20.40;57.60
60848;DHT22;46681;47.696;9.140;2022-08-21T23:38:14;20.30;57.80
60848;DHT22;46681;47.696;9.140;2022-08-21T23:40:54;20.30;57.80
60848;DHT22;46681;47.696;9.140;2022-08-21T23:49:50;20.20;58.00
